Diogo Marques

Chief Scout - Torreense
25 Dec 2027
Saturday
Process

Personality

Adaptability (18) Ambition (13) Controversy (12) Loyalty (10) Pressure (8) Professionalism (20) Sportsmanship (4) Temperament (10)

Profile

Coaching Style Democratic
License National A
Determination 4
Man Management 5
Motivating 10
Discipline 4
Job Satisfaction
100%
Fatigue
0%
Role Chief Scout
Wage 36.3K p/w
Contract 14.03.2030

Performance

Behaviour Good
Training Effectiveness
36%
Player Development
30%
Injury Prevention
30%
Tactical Implementation
40%

Recent Events

Attended a recruitment meeting now
Recommended a transfer target now
Recommended a transfer target now
Recommended a transfer target now
Recommended a transfer target now
Attended a recruitment meeting now
Recommended a transfer target now
Recommended a transfer target now

Currently Monitoring

146
Player Club Status Ability Confidence Watched Last Observed Latest Vote
Inti Borghetto Patronato Active 93 / 102 40% 7 24.12.2027 -
Salvador Blopá Sporting CP Report Ready 124 / 119 67% 10 24.12.2027 Approve
Bahia Juventude Active 111 / 121 40% 1 24.12.2027 -
Martim Cunha Porto Active 114 / 103 40% 11 17.12.2027 -
Fillip Jenssen Riise Stabaek Active 104 / 122 40% 2 17.12.2027 -
Martim Ferreira Benfica Active 113 / 105 40% 1 17.12.2027 -
Gonçalo Oliveira Benfica Active 118 / 134 40% 11 15.12.2027 -
Agustín Medina Lanús Active 111 / 130 40% 7 15.12.2027 -
Kelvin Cruzeiro Active 101 / 98 40% 7 14.12.2027 -
Daniel Costa Sporting CP Report Ready 94 / 118 67% 3 14.12.2027 -
Tiago Freitas Benfica Active 118 / 124 40% 12 13.12.2027 -
Tiago Gordillo San Miguel Active 92 / 90 40% 3 13.12.2027 -
Lautaro Dufur Rentistas Active 101 / 117 40% 2 12.12.2027 -
Cristian Guzmán Universitario Popayan Active 92 / 88 40% 2 12.12.2027 -
Dedé São Paulo Active 99 / 94 40% 3 12.12.2027 -
Matías Canedo Rampla Juniors Active 80 / 85 40% 3 11.12.2027 -
Vinícius Lira Bragantino Active 123 / 130 40% 5 10.12.2027 -
Onuorah Onyedika Kun Khalifat Active 76 / 95 40% 2 09.12.2027 -
Halam Loboa Independiente Medellin Active 125 / 132 40% 2 08.12.2027 -
Francisco Vaz Sigma Olomouc Active 93 / 109 40% 3 07.12.2027 -
João Moura Mlada Boleslav Active 75 / 89 40% 1 06.12.2027 -
Yago Ceará Active 93 / 97 40% 3 03.12.2027 -
Fredi São Paulo Active 113 / 114 40% 2 03.12.2027 -
Murilo Cruzeiro Active 101 / 105 40% 4 02.12.2027 -
Pedro Kauã Boa Active 92 / 85 40% 1 02.12.2027 -
Kaiquy Vitória Active 80 / 101 40% 1 02.12.2027 -
Rafael Lima Bragantino Active 97 / 111 40% 3 01.12.2027 -
João Teixeira Porto Active 114 / 115 40% 6 30.11.2027 -
Bastien Meupiyou Alverca Active 120 / 144 40% 3 30.11.2027 -
Braian Cabral Madryn Active 92 / 90 40% 2 30.11.2027 -
Elkín Morales Universitario Popayan Active 78 / 86 40% 2 26.11.2027 -
Nazareno Roselli Defensa y Justicia Active 118 / 126 40% 1 26.11.2027 -
Luiz Gustavo Internacional Active 112 / 105 40% 4 24.11.2027 -
Rhaisson Oeste Active 75 / 73 40% 1 23.11.2027 -
Daniel Carrasco Südtirol Active 80 / 87 40% 1 21.11.2027 -
Vitor Gabriel Atlético Mineiro Active 83 / 73 40% 1 19.11.2027 -
Uche Jaguar Kwara United Active 97 / 94 40% 3 18.11.2027 -
Lucas Souza Atlético Mineiro Active 88 / 82 40% 1 17.11.2027 -
Sheriff Amuda Shooting Stars Active 87 / 97 40% 1 17.11.2027 -
Ramon Riquelme Palmeiras Active 78 / 73 40% 1 16.11.2027 -
Daniel Sales Valladolid Active 85 / 105 40% 2 15.11.2027 -
Felipe Faúndez O'Higgins Active 108 / 100 40% 3 13.11.2027 -
Lucas Bugs Criciuma Active 83 / 95 40% 2 12.11.2027 -
Pablo Lúcio Farense Active 115 / 135 40% 1 12.11.2027 -
Rodrigo Pires Exeter City Active 82 / 86 40% 1 12.11.2027 -
Lenin Fortaleza Active 80 / 73 40% 1 10.11.2027 -
Kauã Branco Botafogo Active 78 / 91 40% 1 10.11.2027 -
André Lucas Paris FC Active 89 / 105 40% 2 09.11.2027 -
Dodô Almería Active 91 / 109 40% 2 08.11.2027 -
Toni Tamarit Alverca Active 113 / 133 40% 7 06.10.2027 -
Guilherme Nogueira America Mineiro Active 86 / 103 40% 1 04.10.2027 -
Rafael Coutinho Palmeiras Active 87 / 98 40% 1 12.09.2027 -
Ramires Flamengo Active 88 / 101 40% 1 11.09.2027 -
Souza Tottenham Active 127 / 139 40% 1 10.09.2027 -
Gift Isioma Warri Wolves Active 80 / 71 40% 1 06.09.2027 -
Thiaguinho Criciuma Active 84 / 82 40% 1 31.08.2027 -
Esteban de Lima Tacuarembo Active 94 / 91 40% 1 31.08.2027 -
Agustín Anello Philadelphia Union Active 132 / 112 40% 1 23.08.2027 -
José Balza Deportivo Tachira Active 111 / 94 40% 1 23.08.2027 -
Santiago Sanchez Santa Fe Active 140 / 127 40% 2 16.08.2027 -
Giuseppe Di Serio Spezia Active 123 / 133 40% 1 16.08.2027 -
Gustavo Silva Bahia Active 122 / 128 40% 1 16.08.2027 -
Max Svensson Penafiel Active 119 / 127 40% 1 09.08.2027 Needs More Info
Zé Leite Moreirense Active 118 / 134 40% 4 02.08.2027 -
Camilo Durán Bloemfontein Celtic Active 131 / 127 40% 2 02.08.2027 -
Jair Silva Leiria Active 111 / 101 40% 1 02.08.2027 -
Héctor Hernández Gil Vicente Active 131 / 128 40% 1 26.07.2027 -
Gustavo Silva Vitoria Guimaraes Active 122 / 142 40% 1 26.07.2027 -
Aaron Drinan Swindon Town Active 111 / 98 40% 1 20.07.2027 -
Sam Greenwood Bristol City Active 126 / 120 40% 2 13.07.2027 -
Vinícius Lopes Santa Clara Active 118 / 107 40% 1 13.07.2027 Needs More Info
Stephen Humphrys Bradford City Active 113 / 123 40% 1 13.07.2027 -
Emil Riis Leicester City Active 127 / 133 40% 2 12.07.2027 -
Ross Stewart Southampton Active 132 / 140 40% 1 12.07.2027 -
Dale Taylor Blackpool Active 120 / 123 40% 2 11.07.2027 -
Oli McBurnie Hull City Active 142 / 131 40% 3 11.07.2027 -
Vitinha Genoa Active 136 / 132 40% 2 11.07.2027 -
Bradley Fink Wycombe Wanderers Active 106 / 105 40% 1 10.07.2027 -
Bojan Radulović Huddersfield Town Active 112 / 115 40% 2 09.07.2027 -
Andre Green AVS Active 109 / 117 40% 1 09.07.2027 -
Malik Mothersille Stockport County Active 113 / 123 40% 1 07.07.2027 -
Moussa Yeo Swansea City Active 126 / 125 40% 1 07.07.2027 -
Sam Bell Bristol City Active 128 / 118 40% 1 07.07.2027 -
Simone Kosijer Triestina Active 93 / 117 40% 2 15.06.2027 -
Alan Morinigo Olimpia Active 112 / 108 40% 1 15.06.2027 -
Caio Vidal FC Copenhagen Active 128 / 129 63% 1 01.06.2027 Approve
Marezi Portsmouth Active 127 / 111 40% 1 31.05.2027 -
Riyad Idrissi Torino Active 119 / 136 40% 1 28.05.2027 -
Karim Coulibaly RC Strasbourg Active 122 / 138 40% 1 27.05.2027 -
Moncef Zekri Sporting CP Active 99 / 104 67% 10 26.05.2027 Monitor
Maeson King Blackpool Active 114 / 112 40% 3 26.05.2027 -
Facundo Di Biasi Getafe Active 121 / 116 40% 1 26.05.2027 -
Mbekezeli Mbokazi Chicago Fire Active 129 / 108 40% 1 25.05.2027 -
Jonathan De Irastorza Levante Active 116 / 127 40% 7 24.05.2027 -
João Simões Sporting CP Lost 135 / 151 40% 5 22.05.2027 -
Edenílson São Paulo Active 100 / 94 40% 3 22.05.2027 -
Andrey Ivlev Nizhniy Novgorod Active 112 / 111 40% 2 20.05.2027 -
Arthur America Mineiro Active 86 / 100 40% 2 20.05.2027 -
Mattia Puzone Siracusa Active 97 / 93 40% 1 19.05.2027 -
Kauã Moraes Cruzeiro Active 119 / 125 40% 5 17.05.2027 -
Dylan Lawlor Cardiff City Active 121 / 131 40% 4 15.05.2027 -
Ronan Kpakio Brentford Active 120 / 140 40% 2 15.05.2027 -
Lucas Mbamba Westerlo Active 91 / 83 40% 5 14.05.2027 -
Cauê Bragantino Active 99 / 113 40% 5 12.05.2027 -
Matvey Kislyak Lokomotiv Moscow Active 124 / 132 40% 1 12.05.2027 -
Eddy Doué Rio Ave Active 96 / 105 40% 2 10.05.2027 -
Carlos Amaral Lokomotiv Plovdiv Active 75 / 87 40% 1 10.05.2027 -
Mauricio Amaro Atlanta United FC Active 122 / 148 40% 1 10.05.2027 -
Paulinho Fortaleza Active 99 / 103 40% 5 08.05.2027 -
Surprise Manthosi Polokwane City Active 85 / 112 40% 3 06.05.2027 -
Edwin Asamoah Berekum Chelsea Active 78 / 98 40% 5 06.05.2027 -
Isac São Paulo Active 102 / 91 40% 3 02.05.2027 -
Riley Owen Wycombe Wanderers Active 98 / 93 40% 4 30.04.2027 -
Tommaso Cecotti Carpi Active 96 / 90 40% 3 30.04.2027 -
Daniel Vernattus Metalist Active 95 / 108 40% 1 30.04.2027 -
Luca Lipani Frosinone Active 117 / 142 40% 2 26.04.2027 -
Leandro Martins Benfica Active 99 / 104 40% 7 24.04.2027 -
João Paulo Palmeiras Active 86 / 88 40% 1 21.04.2027 -
Kauan Coutinho Vitória Active 94 / 89 40% 2 15.04.2027 -
Júlio Fidelis Fluminense Active 98 / 103 40% 8 10.04.2027 -
Nicolas Sport Recife Active 96 / 113 40% 4 02.04.2027 -
Benedetti Palmeiras Active 102 / 109 40% 4 01.04.2027 -
Figueiredo Mirassol Active 88 / 109 40% 1 31.03.2027 -
Eivind Helland Bologna Active 124 / 135 40% 1 24.03.2027 -
Davi Góes Juventude Active 86 / 76 40% 2 21.03.2027 -
Milan Roganović Racing Genk Active 114 / 106 40% 1 20.03.2027 -
Luis Eduardo Grêmio Active 94 / 122 40% 3 19.03.2027 -
Huguinho Botafogo Active 90 / 90 40% 1 16.03.2027 -
Cemran Dansin Orlando Pirates Active 104 / 139 40% 1 13.03.2027 -
Ignacio Perruzzi Celta Active 129 / 125 40% 1 05.03.2027 -
Mamady Cissé Atlético Mineiro Active 103 / 98 40% 1 16.02.2027 -
Kauã Pascini Atlético Mineiro Active 106 / 119 40% 1 15.02.2027 -
Diego Ahmed Internacional Active 82 / 74 40% 1 14.02.2027 -
Gabriel Justino Botafogo Active 91 / 90 40% 1 12.02.2027 -
Luther Ngcobo Ajax Cape Town Active 104 / 99 40% 1 08.02.2027 -
Riquelme Thompson-Jones Shrewsbury Town Active 109 / 112 40% 1 06.02.2027 -
Gusttavo Flamengo Active 79 / 103 40% 1 05.02.2027 -
Matheus Ferreira Sport Recife Active 91 / 111 40% 1 01.02.2027 -
Mathis Jangeal Famalicao Active 93 / 111 69% 1 02.01.2027 Approve
Thulani Billiat Utrecht Active 136 / 136 61% 1 01.01.2027 Approve
Amar Memić Juventude Active 127 / 128 62% 1 01.01.2027 Approve
Mao Hosoya Manchester City Active 134 / 135 67% 1 01.01.2027 Approve
André Rodrigues Chaves Active 99 / 99 30% 1 / 1m 28.10.2026 -
Marco Matias Active 112 / 108 65% 1 17.08.2026 Approve
Ricardo Valente APOEL Active 112 / 127 40% 1 07.08.2026 -
Oumar Camara Vitoria Guimaraes Active 120 / 137 40% 1 07.08.2026 -